sensor_id;sensor_type;location;lat;lon;timestamp;P1;durP1;ratioP1;P2;durP2;ratioP2
3329;SDS011;1677;49.576;10.990;2023-03-04T00:01:57;16.77;;;9.97;;
3329;SDS011;1677;49.576;10.990;2023-03-04T00:04:22;11.97;;;8.47;;
3329;SDS011;1677;49.576;10.990;2023-03-04T00:06:48;14.03;;;8.90;;
3329;SDS011;1677;49.576;10.990;2023-03-04T00:09:14;13.10;;;8.47;;
3329;SDS011;1677;49.576;10.990;2023-03-04T00:11:39;14.80;;;9.80;;
3329;SDS011;1677;49.576;10.990;2023-03-04T00:14:05;14.30;;;8.70;;
3329;SDS011;1677;49.576;10.990;2023-03-04T00:16:30;13.03;;;7.83;;
3329;SDS011;1677;49.576;10.990;2023-03-04T00:18:56;9.80;;;7.20;;
3329;SDS011;1677;49.576;10.990;2023-03-04T00:21:22;16.83;;;9.47;;
3329;SDS011;1677;49.576;10.990;2023-03-04T00:23:48;11.68;;;8.15;;
3329;SDS011;1677;49.576;10.990;2023-03-04T00:26:14;13.83;;;7.87;;
3329;SDS011;1677;49.576;10.990;2023-03-04T00:28:40;13.65;;;8.35;;
3329;SDS011;1677;49.576;10.990;2023-03-04T00:31:06;12.40;;;8.30;;
3329;SDS011;1677;49.576;10.990;2023-03-04T00:33:32;11.73;;;7.97;;
3329;SDS011;1677;49.576;10.990;2023-03-04T00:35:58;10.98;;;8.10;;
3329;SDS011;1677;49.576;10.990;2023-03-04T00:38:24;12.10;;;8.63;;
3329;SDS011;1677;49.576;10.990;2023-03-04T00:40:50;13.00;;;8.25;;
3329;SDS011;1677;49.576;10.990;2023-03-04T00:43:16;11.70;;;8.63;;
3329;SDS011;1677;49.576;10.990;2023-03-04T00:45:42;11.60;;;8.43;;
3329;SDS011;1677;49.576;10.990;2023-03-04T00:48:07;11.73;;;8.20;;
3329;SDS011;1677;49.576;10.990;2023-03-04T00:50:33;13.60;;;8.50;;
3329;SDS011;1677;49.576;10.990;2023-03-04T00:52:58;17.43;;;9.03;;
3329;SDS011;1677;49.576;10.990;2023-03-04T00:55:25;14.45;;;8.15;;
3329;SDS011;1677;49.576;10.990;2023-03-04T00:57:51;12.47;;;7.57;;
3329;SDS011;1677;49.576;10.990;2023-03-04T01:00:16;11.00;;;8.00;;
3329;SDS011;1677;49.576;10.990;2023-03-04T01:02:42;10.07;;;6.73;;
3329;SDS011;1677;49.576;10.990;2023-03-04T01:05:08;10.87;;;6.93;;
3329;SDS011;1677;49.576;10.990;2023-03-04T01:07:34;13.93;;;8.88;;
3329;SDS011;1677;49.576;10.990;2023-03-04T01:09:59;19.00;;;9.23;;
3329;SDS011;1677;49.576;10.990;2023-03-04T01:12:25;13.40;;;7.60;;
3329;SDS011;1677;49.576;10.990;2023-03-04T01:14:52;12.45;;;8.48;;
3329;SDS011;1677;49.576;10.990;2023-03-04T01:17:17;9.63;;;7.20;;
3329;SDS011;1677;49.576;10.990;2023-03-04T01:19:43;14.00;;;8.90;;
3329;SDS011;1677;49.576;10.990;2023-03-04T01:22:09;15.60;;;8.13;;
3329;SDS011;1677;49.576;10.990;2023-03-04T01:24:36;10.35;;;7.00;;
3329;SDS011;1677;49.576;10.990;2023-03-04T01:27:02;14.90;;;7.90;;
3329;SDS011;1677;49.576;10.990;2023-03-04T01:29:27;10.10;;;6.97;;
3329;SDS011;1677;49.576;10.990;2023-03-04T01:31:53;9.70;;;6.60;;
3329;SDS011;1677;49.576;10.990;2023-03-04T01:34:19;9.77;;;7.07;;
3329;SDS011;1677;49.576;10.990;2023-03-04T01:36:44;14.47;;;8.80;;
3329;SDS011;1677;49.576;10.990;2023-03-04T01:39:10;11.73;;;7.53;;
3329;SDS011;1677;49.576;10.990;2023-03-04T01:41:35;9.13;;;6.60;;
3329;SDS011;1677;49.576;10.990;2023-03-04T01:44:01;10.13;;;6.63;;
3329;SDS011;1677;49.576;10.990;2023-03-04T01:46:27;11.27;;;8.20;;
3329;SDS011;1677;49.576;10.990;2023-03-04T01:48:54;11.65;;;7.05;;
3329;SDS011;1677;49.576;10.990;2023-03-04T01:51:19;13.40;;;8.17;;
3329;SDS011;1677;49.576;10.990;2023-03-04T01:53:47;11.52;;;7.90;;
3329;SDS011;1677;49.576;10.990;2023-03-04T01:56:36;9.70;;;6.63;;
3329;SDS011;1677;49.576;10.990;2023-03-04T01:59:07;9.35;;;6.38;;
3329;SDS011;1677;49.576;10.990;2023-03-04T02:01:36;9.80;;;6.53;;
3329;SDS011;1677;49.576;10.990;2023-03-04T02:04:03;11.80;;;6.35;;
3329;SDS011;1677;49.576;10.990;2023-03-04T02:06:30;8.50;;;6.38;;
3329;SDS011;1677;49.576;10.990;2023-03-04T02:08:56;13.00;;;7.17;;
3329;SDS011;1677;49.576;10.990;2023-03-04T02:11:22;9.88;;;6.25;;
3329;SDS011;1677;49.576;10.990;2023-03-04T02:13:48;9.20;;;6.10;;
3329;SDS011;1677;49.576;10.990;2023-03-04T02:16:13;12.07;;;6.97;;
3329;SDS011;1677;49.576;10.990;2023-03-04T02:18:39;13.23;;;6.50;;
3329;SDS011;1677;49.576;10.990;2023-03-04T02:23:39;10.77;;;7.38;;
3329;SDS011;1677;49.576;10.990;2023-03-04T02:26:23;11.93;;;7.13;;
3329;SDS011;1677;49.576;10.990;2023-03-04T02:28:51;11.75;;;7.95;;
3329;SDS011;1677;49.576;10.990;2023-03-04T02:31:23;9.13;;;6.20;;
3329;SDS011;1677;49.576;10.990;2023-03-04T02:34:06;9.43;;;6.38;;
3329;SDS011;1677;49.576;10.990;2023-03-04T02:36:35;11.55;;;7.22;;
3329;SDS011;1677;49.576;10.990;2023-03-04T02:39:03;12.18;;;6.70;;
3329;SDS011;1677;49.576;10.990;2023-03-04T02:41:32;12.73;;;6.63;;
3329;SDS011;1677;49.576;10.990;2023-03-04T02:43:57;10.88;;;7.45;;
3329;SDS011;1677;49.576;10.990;2023-03-04T02:46:23;10.60;;;7.37;;
3329;SDS011;1677;49.576;10.990;2023-03-04T02:48:49;11.40;;;7.33;;
3329;SDS011;1677;49.576;10.990;2023-03-04T02:51:15;12.38;;;7.45;;
3329;SDS011;1677;49.576;10.990;2023-03-04T02:53:41;12.97;;;8.13;;
3329;SDS011;1677;49.576;10.990;2023-03-04T02:56:07;8.93;;;6.90;;
3329;SDS011;1677;49.576;10.990;2023-03-04T02:58:33;12.07;;;7.50;;
3329;SDS011;1677;49.576;10.990;2023-03-04T03:00:58;11.93;;;7.87;;
3329;SDS011;1677;49.576;10.990;2023-03-04T03:03:24;11.17;;;7.27;;
3329;SDS011;1677;49.576;10.990;2023-03-04T03:05:50;15.57;;;7.97;;
3329;SDS011;1677;49.576;10.990;2023-03-04T03:08:17;14.98;;;8.70;;
3329;SDS011;1677;49.576;10.990;2023-03-04T03:10:42;12.87;;;7.87;;
3329;SDS011;1677;49.576;10.990;2023-03-04T03:13:08;13.63;;;8.00;;
3329;SDS011;1677;49.576;10.990;2023-03-04T03:15:34;13.10;;;8.50;;
3329;SDS011;1677;49.576;10.990;2023-03-04T03:18:00;13.68;;;8.85;;
3329;SDS011;1677;49.576;10.990;2023-03-04T03:20:25;12.47;;;8.30;;
3329;SDS011;1677;49.576;10.990;2023-03-04T03:22:51;13.57;;;8.43;;
3329;SDS011;1677;49.576;10.990;2023-03-04T03:25:17;14.70;;;8.50;;
3329;SDS011;1677;49.576;10.990;2023-03-04T03:27:42;11.17;;;8.23;;
3329;SDS011;1677;49.576;10.990;2023-03-04T03:30:09;13.87;;;8.20;;
3329;SDS011;1677;49.576;10.990;2023-03-04T03:32:36;14.15;;;8.18;;
3329;SDS011;1677;49.576;10.990;2023-03-04T03:35:02;13.17;;;8.40;;
3329;SDS011;1677;49.576;10.990;2023-03-04T03:37:27;12.03;;;7.20;;
3329;SDS011;1677;49.576;10.990;2023-03-04T03:39:53;14.07;;;7.33;;
3329;SDS011;1677;49.576;10.990;2023-03-04T03:42:18;13.83;;;8.67;;
3329;SDS011;1677;49.576;10.990;2023-03-04T03:44:44;13.90;;;8.00;;
3329;SDS011;1677;49.576;10.990;2023-03-04T03:47:10;15.67;;;9.47;;
3329;SDS011;1677;49.576;10.990;2023-03-04T03:49:35;14.17;;;8.60;;
3329;SDS011;1677;49.576;10.990;2023-03-04T03:52:01;14.60;;;8.77;;
3329;SDS011;1677;49.576;10.990;2023-03-04T03:54:27;14.20;;;7.87;;
3329;SDS011;1677;49.576;10.990;2023-03-04T03:56:52;15.93;;;8.03;;
3329;SDS011;1677;49.576;10.990;2023-03-04T03:59:18;12.00;;;7.83;;
3329;SDS011;1677;49.576;10.990;2023-03-04T04:01:43;12.70;;;8.80;;
3329;SDS011;1677;49.576;10.990;2023-03-04T04:04:09;16.50;;;7.73;;
3329;SDS011;1677;49.576;10.990;2023-03-04T04:06:35;15.67;;;8.27;;
3329;SDS011;1677;49.576;10.990;2023-03-04T04:09:00;12.73;;;7.63;;
3329;SDS011;1677;49.576;10.990;2023-03-04T04:11:26;15.67;;;7.83;;
3329;SDS011;1677;49.576;10.990;2023-03-04T04:13:52;12.70;;;7.43;;
3329;SDS011;1677;49.576;10.990;2023-03-04T04:16:17;9.83;;;6.70;;
3329;SDS011;1677;49.576;10.990;2023-03-04T04:18:43;13.77;;;8.73;;
3329;SDS011;1677;49.576;10.990;2023-03-04T04:21:08;9.27;;;6.37;;
3329;SDS011;1677;49.576;10.990;2023-03-04T04:23:34;16.20;;;7.87;;
3329;SDS011;1677;49.576;10.990;2023-03-04T04:26:00;12.07;;;7.13;;
3329;SDS011;1677;49.576;10.990;2023-03-04T04:28:25;16.70;;;8.23;;
3329;SDS011;1677;49.576;10.990;2023-03-04T04:30:51;15.00;;;8.43;;
3329;SDS011;1677;49.576;10.990;2023-03-04T04:33:16;12.40;;;8.30;;
3329;SDS011;1677;49.576;10.990;2023-03-04T04:35:42;15.50;;;9.70;;
3329;SDS011;1677;49.576;10.990;2023-03-04T04:38:07;17.37;;;8.60;;
3329;SDS011;1677;49.576;10.990;2023-03-04T04:40:33;14.07;;;8.80;;
3329;SDS011;1677;49.576;10.990;2023-03-04T04:43:00;12.20;;;7.40;;
3329;SDS011;1677;49.576;10.990;2023-03-04T04:45:25;13.47;;;7.47;;
3329;SDS011;1677;49.576;10.990;2023-03-04T04:47:51;14.00;;;8.10;;
3329;SDS011;1677;49.576;10.990;2023-03-04T04:50:18;10.02;;;7.43;;
3329;SDS011;1677;49.576;10.990;2023-03-04T04:52:44;12.40;;;7.10;;
3329;SDS011;1677;49.576;10.990;2023-03-04T04:55:09;11.47;;;7.63;;
3329;SDS011;1677;49.576;10.990;2023-03-04T04:57:35;12.33;;;7.37;;
3329;SDS011;1677;49.576;10.990;2023-03-04T05:00:02;13.98;;;7.90;;
3329;SDS011;1677;49.576;10.990;2023-03-04T05:02:29;12.63;;;8.55;;
3329;SDS011;1677;49.576;10.990;2023-03-04T05:04:55;12.18;;;8.20;;
3329;SDS011;1677;49.576;10.990;2023-03-04T05:07:20;15.83;;;8.43;;
3329;SDS011;1677;49.576;10.990;2023-03-04T05:09:46;16.23;;;9.73;;
3329;SDS011;1677;49.576;10.990;2023-03-04T05:12:12;21.77;;;9.37;;
3329;SDS011;1677;49.576;10.990;2023-03-04T05:14:37;13.23;;;7.90;;
3329;SDS011;1677;49.576;10.990;2023-03-04T05:17:03;18.83;;;10.40;;
3329;SDS011;1677;49.576;10.990;2023-03-04T05:19:28;12.87;;;8.03;;
3329;SDS011;1677;49.576;10.990;2023-03-04T05:21:54;18.07;;;9.30;;
3329;SDS011;1677;49.576;10.990;2023-03-04T05:24:20;20.90;;;9.53;;
3329;SDS011;1677;49.576;10.990;2023-03-04T05:26:45;14.13;;;8.60;;
3329;SDS011;1677;49.576;10.990;2023-03-04T05:29:11;12.13;;;8.00;;
3329;SDS011;1677;49.576;10.990;2023-03-04T05:31:37;15.10;;;7.77;;
3329;SDS011;1677;49.576;10.990;2023-03-04T05:34:02;16.43;;;8.90;;
3329;SDS011;1677;49.576;10.990;2023-03-04T05:36:28;12.47;;;7.50;;
3329;SDS011;1677;49.576;10.990;2023-03-04T05:38:53;11.80;;;9.10;;
3329;SDS011;1677;49.576;10.990;2023-03-04T05:41:19;12.40;;;8.07;;
3329;SDS011;1677;49.576;10.990;2023-03-04T05:43:46;17.33;;;9.10;;
3329;SDS011;1677;49.576;10.990;2023-03-04T05:46:13;13.50;;;8.07;;
3329;SDS011;1677;49.576;10.990;2023-03-04T05:48:40;13.63;;;8.13;;
3329;SDS011;1677;49.576;10.990;2023-03-04T05:51:06;15.63;;;8.20;;
3329;SDS011;1677;49.576;10.990;2023-03-04T05:53:32;14.70;;;9.57;;
3329;SDS011;1677;49.576;10.990;2023-03-04T05:56:05;15.80;;;8.57;;
3329;SDS011;1677;49.576;10.990;2023-03-04T05:58:31;14.15;;;8.63;;
3329;SDS011;1677;49.576;10.990;2023-03-04T06:01:00;13.87;;;8.10;;
3329;SDS011;1677;49.576;10.990;2023-03-04T06:03:26;16.58;;;8.98;;
3329;SDS011;1677;49.576;10.990;2023-03-04T06:05:52;15.20;;;8.40;;
3329;SDS011;1677;49.576;10.990;2023-03-04T06:08:18;17.77;;;9.63;;
3329;SDS011;1677;49.576;10.990;2023-03-04T06:10:43;24.43;;;11.60;;
3329;SDS011;1677;49.576;10.990;2023-03-04T06:13:09;19.30;;;10.83;;
3329;SDS011;1677;49.576;10.990;2023-03-04T06:15:35;17.43;;;10.20;;
3329;SDS011;1677;49.576;10.990;2023-03-04T06:18:02;15.98;;;8.60;;
3329;SDS011;1677;49.576;10.990;2023-03-04T06:20:28;16.05;;;9.43;;
3329;SDS011;1677;49.576;10.990;2023-03-04T06:22:54;16.33;;;8.20;;
3329;SDS011;1677;49.576;10.990;2023-03-04T06:25:19;13.13;;;8.20;;
3329;SDS011;1677;49.576;10.990;2023-03-04T06:27:45;13.90;;;8.75;;
3329;SDS011;1677;49.576;10.990;2023-03-04T06:30:11;16.93;;;9.03;;
3329;SDS011;1677;49.576;10.990;2023-03-04T06:32:37;14.70;;;9.00;;
3329;SDS011;1677;49.576;10.990;2023-03-04T06:35:03;19.40;;;9.50;;
3329;SDS011;1677;49.576;10.990;2023-03-04T06:37:29;14.93;;;9.20;;
3329;SDS011;1677;49.576;10.990;2023-03-04T06:39:54;24.70;;;11.43;;
3329;SDS011;1677;49.576;10.990;2023-03-04T06:42:20;17.07;;;9.70;;
3329;SDS011;1677;49.576;10.990;2023-03-04T06:44:47;15.67;;;9.07;;
3329;SDS011;1677;49.576;10.990;2023-03-04T06:47:13;14.32;;;8.38;;
3329;SDS011;1677;49.576;10.990;2023-03-04T06:49:40;16.40;;;9.52;;
3329;SDS011;1677;49.576;10.990;2023-03-04T06:52:06;16.53;;;8.97;;
3329;SDS011;1677;49.576;10.990;2023-03-04T06:54:35;17.20;;;9.52;;
3329;SDS011;1677;49.576;10.990;2023-03-04T06:57:00;15.30;;;10.00;;
3329;SDS011;1677;49.576;10.990;2023-03-04T06:59:26;15.90;;;8.77;;
3329;SDS011;1677;49.576;10.990;2023-03-04T07:01:51;21.23;;;8.63;;
3329;SDS011;1677;49.576;10.990;2023-03-04T07:04:18;16.33;;;9.35;;
3329;SDS011;1677;49.576;10.990;2023-03-04T07:06:43;19.23;;;10.43;;
3329;SDS011;1677;49.576;10.990;2023-03-04T07:09:09;15.97;;;9.00;;
3329;SDS011;1677;49.576;10.990;2023-03-04T07:11:34;17.03;;;9.20;;
3329;SDS011;1677;49.576;10.990;2023-03-04T07:14:00;16.20;;;9.07;;
3329;SDS011;1677;49.576;10.990;2023-03-04T07:16:26;17.43;;;8.90;;
3329;SDS011;1677;49.576;10.990;2023-03-04T07:18:51;20.37;;;9.67;;
3329;SDS011;1677;49.576;10.990;2023-03-04T07:21:17;17.47;;;8.97;;
3329;SDS011;1677;49.576;10.990;2023-03-04T07:23:43;14.40;;;8.63;;
3329;SDS011;1677;49.576;10.990;2023-03-04T07:26:08;17.70;;;9.67;;
3329;SDS011;1677;49.576;10.990;2023-03-04T07:28:35;17.57;;;9.07;;
3329;SDS011;1677;49.576;10.990;2023-03-04T07:31:07;13.43;;;8.65;;
3329;SDS011;1677;49.576;10.990;2023-03-04T07:33:49;13.00;;;8.13;;
3329;SDS011;1677;49.576;10.990;2023-03-04T07:36:15;13.20;;;9.68;;
3329;SDS011;1677;49.576;10.990;2023-03-04T07:38:44;18.05;;;9.27;;
3329;SDS011;1677;49.576;10.990;2023-03-04T07:41:11;17.65;;;8.95;;
3329;SDS011;1677;49.576;10.990;2023-03-04T07:43:36;16.83;;;8.97;;
3329;SDS011;1677;49.576;10.990;2023-03-04T07:46:02;14.33;;;8.10;;
3329;SDS011;1677;49.576;10.990;2023-03-04T07:48:28;14.13;;;8.67;;
3329;SDS011;1677;49.576;10.990;2023-03-04T07:53:29;14.60;;;9.45;;
3329;SDS011;1677;49.576;10.990;2023-03-04T07:55:55;14.57;;;8.90;;
3329;SDS011;1677;49.576;10.990;2023-03-04T07:58:21;17.73;;;9.80;;
3329;SDS011;1677;49.576;10.990;2023-03-04T08:00:47;24.80;;;11.67;;
3329;SDS011;1677;49.576;10.990;2023-03-04T08:03:12;20.27;;;9.60;;
3329;SDS011;1677;49.576;10.990;2023-03-04T08:05:38;14.47;;;7.80;;
3329;SDS011;1677;49.576;10.990;2023-03-04T08:08:04;16.20;;;10.30;;
3329;SDS011;1677;49.576;10.990;2023-03-04T08:10:30;17.27;;;9.53;;
3329;SDS011;1677;49.576;10.990;2023-03-04T08:12:55;21.90;;;9.80;;
3329;SDS011;1677;49.576;10.990;2023-03-04T08:15:21;14.93;;;8.27;;
3329;SDS011;1677;49.576;10.990;2023-03-04T08:17:46;18.17;;;8.30;;
3329;SDS011;1677;49.576;10.990;2023-03-04T08:20:12;15.40;;;8.53;;
3329;SDS011;1677;49.576;10.990;2023-03-04T08:22:38;16.57;;;8.10;;
3329;SDS011;1677;49.576;10.990;2023-03-04T08:25:03;13.80;;;9.17;;
3329;SDS011;1677;49.576;10.990;2023-03-04T08:27:32;16.73;;;8.48;;
3329;SDS011;1677;49.576;10.990;2023-03-04T08:29:58;12.10;;;7.97;;
3329;SDS011;1677;49.576;10.990;2023-03-04T08:32:23;13.87;;;9.03;;
3329;SDS011;1677;49.576;10.990;2023-03-04T08:34:49;12.87;;;8.50;;
3329;SDS011;1677;49.576;10.990;2023-03-04T08:37:14;19.50;;;9.07;;
3329;SDS011;1677;49.576;10.990;2023-03-04T08:39:40;14.90;;;10.63;;
3329;SDS011;1677;49.576;10.990;2023-03-04T08:42:05;14.03;;;8.67;;
3329;SDS011;1677;49.576;10.990;2023-03-04T08:44:31;14.10;;;9.53;;
3329;SDS011;1677;49.576;10.990;2023-03-04T08:46:57;18.63;;;10.07;;
3329;SDS011;1677;49.576;10.990;2023-03-04T08:49:22;13.90;;;8.80;;
3329;SDS011;1677;49.576;10.990;2023-03-04T08:51:48;15.90;;;8.20;;
3329;SDS011;1677;49.576;10.990;2023-03-04T08:54:13;19.87;;;9.87;;
3329;SDS011;1677;49.576;10.990;2023-03-04T08:56:39;14.10;;;10.03;;
3329;SDS011;1677;49.576;10.990;2023-03-04T08:59:05;17.00;;;9.15;;
3329;SDS011;1677;49.576;10.990;2023-03-04T09:01:31;18.23;;;9.10;;
3329;SDS011;1677;49.576;10.990;2023-03-04T09:03:56;17.10;;;8.80;;
3329;SDS011;1677;49.576;10.990;2023-03-04T09:06:22;17.03;;;8.93;;
3329;SDS011;1677;49.576;10.990;2023-03-04T09:08:47;11.80;;;8.70;;
3329;SDS011;1677;49.576;10.990;2023-03-04T09:11:13;14.07;;;8.60;;
3329;SDS011;1677;49.576;10.990;2023-03-04T09:13:39;13.33;;;8.77;;
3329;SDS011;1677;49.576;10.990;2023-03-04T09:16:09;12.80;;;8.90;;
3329;SDS011;1677;49.576;10.990;2023-03-04T09:18:36;13.02;;;8.50;;
3329;SDS011;1677;49.576;10.990;2023-03-04T09:21:03;14.90;;;9.63;;
3329;SDS011;1677;49.576;10.990;2023-03-04T09:23:29;20.98;;;9.95;;
3329;SDS011;1677;49.576;10.990;2023-03-04T09:25:55;27.60;;;10.83;;
3329;SDS011;1677;49.576;10.990;2023-03-04T09:28:20;19.33;;;10.47;;
3329;SDS011;1677;49.576;10.990;2023-03-04T09:30:46;15.40;;;9.53;;
3329;SDS011;1677;49.576;10.990;2023-03-04T09:33:12;17.63;;;10.17;;
3329;SDS011;1677;49.576;10.990;2023-03-04T09:35:37;16.17;;;10.47;;
3329;SDS011;1677;49.576;10.990;2023-03-04T09:38:03;11.97;;;9.57;;
3329;SDS011;1677;49.576;10.990;2023-03-04T09:40:36;13.52;;;9.07;;
3329;SDS011;1677;49.576;10.990;2023-03-04T09:43:14;16.05;;;9.98;;
3329;SDS011;1677;49.576;10.990;2023-03-04T09:45:49;11.25;;;9.40;;
3329;SDS011;1677;49.576;10.990;2023-03-04T09:48:19;18.15;;;10.50;;
3329;SDS011;1677;49.576;10.990;2023-03-04T09:51:30;20.50;;;11.10;;
3329;SDS011;1677;49.576;10.990;2023-03-04T09:53:48;18.42;;;9.65;;
3329;SDS011;1677;49.576;10.990;2023-03-04T09:56:38;11.90;;;8.50;;
3329;SDS011;1677;49.576;10.990;2023-03-04T09:59:10;14.73;;;9.00;;
3329;SDS011;1677;49.576;10.990;2023-03-04T10:01:52;17.15;;;9.07;;
3329;SDS011;1677;49.576;10.990;2023-03-04T10:04:25;14.52;;;10.10;;
3329;SDS011;1677;49.576;10.990;2023-03-04T10:06:58;13.20;;;9.88;;
3329;SDS011;1677;49.576;10.990;2023-03-04T10:12:24;17.10;;;11.25;;
3329;SDS011;1677;49.576;10.990;2023-03-04T10:14:59;19.77;;;10.60;;
3329;SDS011;1677;49.576;10.990;2023-03-04T10:17:31;16.30;;;10.43;;
3329;SDS011;1677;49.576;10.990;2023-03-04T10:22:46;16.00;;;9.70;;
3329;SDS011;1677;49.576;10.990;2023-03-04T10:25:15;14.20;;;10.45;;
3329;SDS011;1677;49.576;10.990;2023-03-04T10:28:03;15.77;;;10.40;;
3329;SDS011;1677;49.576;10.990;2023-03-04T10:33:16;14.00;;;9.93;;
3329;SDS011;1677;49.576;10.990;2023-03-04T10:35:50;19.88;;;10.70;;
3329;SDS011;1677;49.576;10.990;2023-03-04T10:38:23;18.05;;;10.18;;
3329;SDS011;1677;49.576;10.990;2023-03-04T10:40:49;17.33;;;9.93;;
3329;SDS011;1677;49.576;10.990;2023-03-04T10:43:16;16.77;;;10.00;;
3329;SDS011;1677;49.576;10.990;2023-03-04T10:45:43;12.95;;;9.40;;
3329;SDS011;1677;49.576;10.990;2023-03-04T10:48:17;14.75;;;9.98;;
3329;SDS011;1677;49.576;10.990;2023-03-04T10:50:45;12.77;;;8.98;;
3329;SDS011;1677;49.576;10.990;2023-03-04T10:53:32;20.77;;;10.27;;
3329;SDS011;1677;49.576;10.990;2023-03-04T10:56:03;16.70;;;10.00;;
3329;SDS011;1677;49.576;10.990;2023-03-04T10:58:49;16.40;;;10.18;;
3329;SDS011;1677;49.576;10.990;2023-03-04T11:01:15;18.07;;;9.60;;
3329;SDS011;1677;49.576;10.990;2023-03-04T11:03:49;15.52;;;9.55;;
3329;SDS011;1677;49.576;10.990;2023-03-04T11:08:51;14.52;;;9.27;;
3329;SDS011;1677;49.576;10.990;2023-03-04T11:11:26;12.18;;;9.05;;
3329;SDS011;1677;49.576;10.990;2023-03-04T11:14:03;17.05;;;9.82;;
3329;SDS011;1677;49.576;10.990;2023-03-04T11:16:57;14.60;;;8.88;;
3329;SDS011;1677;49.576;10.990;2023-03-04T11:19:33;10.52;;;8.45;;
3329;SDS011;1677;49.576;10.990;2023-03-04T11:22:02;14.30;;;10.23;;
3329;SDS011;1677;49.576;10.990;2023-03-04T11:24:29;19.42;;;10.13;;
3329;SDS011;1677;49.576;10.990;2023-03-04T11:35:07;12.55;;;8.23;;
3329;SDS011;1677;49.576;10.990;2023-03-04T11:38:15;17.48;;;10.40;;
3329;SDS011;1677;49.576;10.990;2023-03-04T11:40:50;13.52;;;10.20;;
3329;SDS011;1677;49.576;10.990;2023-03-04T11:43:26;17.35;;;10.65;;
3329;SDS011;1677;49.576;10.990;2023-03-04T11:46:10;15.20;;;9.40;;
3329;SDS011;1677;49.576;10.990;2023-03-04T11:48:53;11.18;;;7.55;;
3329;SDS011;1677;49.576;10.990;2023-03-04T11:54:33;12.15;;;8.25;;
3329;SDS011;1677;49.576;10.990;2023-03-04T11:57:21;16.88;;;9.35;;
3329;SDS011;1677;49.576;10.990;2023-03-04T12:11:21;12.98;;;9.25;;
3329;SDS011;1677;49.576;10.990;2023-03-04T12:14:20;19.75;;;10.02;;
3329;SDS011;1677;49.576;10.990;2023-03-04T12:17:12;11.82;;;8.32;;
3329;SDS011;1677;49.576;10.990;2023-03-04T12:19:55;13.65;;;8.13;;
3329;SDS011;1677;49.576;10.990;2023-03-04T12:22:38;13.32;;;9.50;;
3329;SDS011;1677;49.576;10.990;2023-03-04T12:27:42;10.67;;;7.60;;
3329;SDS011;1677;49.576;10.990;2023-03-04T12:33:17;12.05;;;8.43;;
3329;SDS011;1677;49.576;10.990;2023-03-04T12:38:41;14.93;;;8.57;;
3329;SDS011;1677;49.576;10.990;2023-03-04T12:44:20;14.50;;;8.23;;
3329;SDS011;1677;49.576;10.990;2023-03-04T12:54:49;9.77;;;7.18;;
3329;SDS011;1677;49.576;10.990;2023-03-04T12:57:20;11.70;;;8.63;;
3329;SDS011;1677;49.576;10.990;2023-03-04T13:02:34;14.57;;;7.80;;
3329;SDS011;1677;49.576;10.990;2023-03-04T13:10:32;12.70;;;10.05;;
3329;SDS011;1677;49.576;10.990;2023-03-04T13:12:58;16.27;;;9.20;;
3329;SDS011;1677;49.576;10.990;2023-03-04T13:23:47;11.73;;;7.55;;
3329;SDS011;1677;49.576;10.990;2023-03-04T13:26:17;15.32;;;8.98;;
3329;SDS011;1677;49.576;10.990;2023-03-04T13:28:50;11.23;;;9.52;;
3329;SDS011;1677;49.576;10.990;2023-03-04T13:31:19;17.45;;;11.23;;
3329;SDS011;1677;49.576;10.990;2023-03-04T13:33:55;17.98;;;11.43;;
3329;SDS011;1677;49.576;10.990;2023-03-04T13:36:25;21.65;;;13.18;;
3329;SDS011;1677;49.576;10.990;2023-03-04T13:39:00;17.42;;;10.88;;
3329;SDS011;1677;49.576;10.990;2023-03-04T13:41:46;13.57;;;9.30;;
3329;SDS011;1677;49.576;10.990;2023-03-04T13:44:33;12.50;;;9.30;;
3329;SDS011;1677;49.576;10.990;2023-03-04T13:47:08;18.92;;;11.00;;
3329;SDS011;1677;49.576;10.990;2023-03-04T13:49:40;19.27;;;10.00;;
3329;SDS011;1677;49.576;10.990;2023-03-04T13:58:27;13.80;;;9.02;;
3329;SDS011;1677;49.576;10.990;2023-03-04T14:00:53;12.80;;;7.93;;
3329;SDS011;1677;49.576;10.990;2023-03-04T14:03:21;9.93;;;8.43;;
3329;SDS011;1677;49.576;10.990;2023-03-04T14:06:07;13.95;;;8.88;;
3329;SDS011;1677;49.576;10.990;2023-03-04T14:08:42;16.20;;;9.05;;
3329;SDS011;1677;49.576;10.990;2023-03-04T14:11:12;16.50;;;10.48;;
3329;SDS011;1677;49.576;10.990;2023-03-04T14:13:58;14.98;;;9.25;;
3329;SDS011;1677;49.576;10.990;2023-03-04T14:16:28;16.55;;;9.65;;
3329;SDS011;1677;49.576;10.990;2023-03-04T14:19:03;14.15;;;10.02;;
3329;SDS011;1677;49.576;10.990;2023-03-04T14:21:30;14.85;;;9.68;;
3329;SDS011;1677;49.576;10.990;2023-03-04T14:24:07;15.40;;;10.18;;
3329;SDS011;1677;49.576;10.990;2023-03-04T14:26:37;13.38;;;8.63;;
3329;SDS011;1677;49.576;10.990;2023-03-04T14:29:17;21.27;;;10.93;;
3329;SDS011;1677;49.576;10.990;2023-03-04T14:31:50;27.73;;;10.23;;
3329;SDS011;1677;49.576;10.990;2023-03-04T14:34:50;16.90;;;9.90;;
3329;SDS011;1677;49.576;10.990;2023-03-04T14:37:20;28.38;;;9.77;;
3329;SDS011;1677;49.576;10.990;2023-03-04T14:39:49;13.30;;;8.93;;
3329;SDS011;1677;49.576;10.990;2023-03-04T14:42:17;16.17;;;9.35;;
3329;SDS011;1677;49.576;10.990;2023-03-04T14:44:45;16.95;;;10.40;;
3329;SDS011;1677;49.576;10.990;2023-03-04T14:47:20;11.55;;;9.10;;
3329;SDS011;1677;49.576;10.990;2023-03-04T14:49:53;13.60;;;9.95;;
3329;SDS011;1677;49.576;10.990;2023-03-04T14:52:32;19.50;;;9.80;;
3329;SDS011;1677;49.576;10.990;2023-03-04T14:57:41;13.57;;;9.13;;
3329;SDS011;1677;49.576;10.990;2023-03-04T15:00:23;11.38;;;9.40;;
3329;SDS011;1677;49.576;10.990;2023-03-04T15:02:55;11.77;;;8.07;;
3329;SDS011;1677;49.576;10.990;2023-03-04T15:07:55;10.82;;;8.63;;
3329;SDS011;1677;49.576;10.990;2023-03-04T15:10:51;15.35;;;9.20;;
3329;SDS011;1677;49.576;10.990;2023-03-04T15:13:17;12.93;;;8.85;;
3329;SDS011;1677;49.576;10.990;2023-03-04T15:16:07;19.33;;;9.52;;
3329;SDS011;1677;49.576;10.990;2023-03-04T15:18:34;14.38;;;9.02;;
3329;SDS011;1677;49.576;10.990;2023-03-04T15:21:00;21.93;;;9.40;;
3329;SDS011;1677;49.576;10.990;2023-03-04T15:23:28;15.40;;;9.52;;
3329;SDS011;1677;49.576;10.990;2023-03-04T15:25:56;20.52;;;9.35;;
3329;SDS011;1677;49.576;10.990;2023-03-04T15:28:24;24.55;;;8.63;;
3329;SDS011;1677;49.576;10.990;2023-03-04T15:30:51;14.35;;;8.90;;
3329;SDS011;1677;49.576;10.990;2023-03-04T15:33:17;12.55;;;9.35;;
3329;SDS011;1677;49.576;10.990;2023-03-04T15:35:52;14.00;;;7.40;;
3329;SDS011;1677;49.576;10.990;2023-03-04T15:38:23;15.82;;;10.30;;
3329;SDS011;1677;49.576;10.990;2023-03-04T15:40:50;17.02;;;9.57;;
3329;SDS011;1677;49.576;10.990;2023-03-04T15:43:17;20.70;;;8.85;;
3329;SDS011;1677;49.576;10.990;2023-03-04T15:45:44;13.98;;;8.18;;
3329;SDS011;1677;49.576;10.990;2023-03-04T15:48:12;11.48;;;8.32;;
3329;SDS011;1677;49.576;10.990;2023-03-04T15:50:58;10.80;;;7.40;;
3329;SDS011;1677;49.576;10.990;2023-03-04T15:53:35;14.20;;;7.70;;
3329;SDS011;1677;49.576;10.990;2023-03-04T15:56:04;13.15;;;8.65;;
3329;SDS011;1677;49.576;10.990;2023-03-04T15:59:18;14.98;;;8.48;;
3329;SDS011;1677;49.576;10.990;2023-03-04T16:01:44;15.73;;;9.43;;
3329;SDS011;1677;49.576;10.990;2023-03-04T16:04:12;18.40;;;9.30;;
3329;SDS011;1677;49.576;10.990;2023-03-04T16:06:40;12.60;;;8.70;;
3329;SDS011;1677;49.576;10.990;2023-03-04T16:09:11;11.20;;;8.10;;
3329;SDS011;1677;49.576;10.990;2023-03-04T16:11:40;11.90;;;8.50;;
3329;SDS011;1677;49.576;10.990;2023-03-04T16:14:10;11.90;;;8.35;;
3329;SDS011;1677;49.576;10.990;2023-03-04T16:16:36;16.63;;;9.98;;
3329;SDS011;1677;49.576;10.990;2023-03-04T16:19:02;16.43;;;8.60;;
3329;SDS011;1677;49.576;10.990;2023-03-04T16:21:28;15.43;;;9.13;;
3329;SDS011;1677;49.576;10.990;2023-03-04T16:23:53;16.40;;;8.80;;